sensor_id;sensor_type;location;lat;lon;timestamp;P1;durP1;ratioP1;P2;durP2;ratioP2
60344;SDS011;46188;52.324;8.032;2022-08-02T00:01:40;4.93;;;2.80;;
60344;SDS011;46188;52.324;8.032;2022-08-02T00:04:06;3.90;;;2.33;;
60344;SDS011;46188;52.324;8.032;2022-08-02T00:06:33;3.58;;;2.03;;
60344;SDS011;46188;52.324;8.032;2022-08-02T00:08:58;2.63;;;2.20;;
60344;SDS011;46188;52.324;8.032;2022-08-02T00:11:24;4.10;;;2.50;;
60344;SDS011;46188;52.324;8.032;2022-08-02T00:13:50;3.50;;;2.42;;
60344;SDS011;46188;52.324;8.032;2022-08-02T00:16:15;5.65;;;2.30;;
60344;SDS011;46188;52.324;8.032;2022-08-02T00:18:41;4.07;;;2.50;;
60344;SDS011;46188;52.324;8.032;2022-08-02T00:21:07;3.00;;;2.20;;
60344;SDS011;46188;52.324;8.032;2022-08-02T00:23:33;5.10;;;2.10;;
60344;SDS011;46188;52.324;8.032;2022-08-02T00:25:58;3.25;;;2.47;;
60344;SDS011;46188;52.324;8.032;2022-08-02T00:28:24;3.72;;;2.50;;
60344;SDS011;46188;52.324;8.032;2022-08-02T00:30:50;3.70;;;2.20;;
60344;SDS011;46188;52.324;8.032;2022-08-02T00:33:15;4.07;;;2.47;;
60344;SDS011;46188;52.324;8.032;2022-08-02T00:35:41;4.47;;;2.55;;
60344;SDS011;46188;52.324;8.032;2022-08-02T00:38:06;4.07;;;2.70;;
60344;SDS011;46188;52.324;8.032;2022-08-02T00:40:32;4.28;;;2.50;;
60344;SDS011;46188;52.324;8.032;2022-08-02T00:43:05;4.97;;;2.40;;
60344;SDS011;46188;52.324;8.032;2022-08-02T00:45:33;4.68;;;2.70;;
60344;SDS011;46188;52.324;8.032;2022-08-02T00:48:00;3.53;;;2.28;;
60344;SDS011;46188;52.324;8.032;2022-08-02T00:50:26;5.13;;;2.50;;
60344;SDS011;46188;52.324;8.032;2022-08-02T00:52:52;4.80;;;2.35;;
60344;SDS011;46188;52.324;8.032;2022-08-02T00:55:18;6.13;;;2.40;;
60344;SDS011;46188;52.324;8.032;2022-08-02T00:57:44;4.78;;;2.55;;
60344;SDS011;46188;52.324;8.032;2022-08-02T01:00:09;4.68;;;2.60;;
60344;SDS011;46188;52.324;8.032;2022-08-02T01:02:36;3.42;;;2.38;;
60344;SDS011;46188;52.324;8.032;2022-08-02T01:05:01;4.13;;;2.63;;
60344;SDS011;46188;52.324;8.032;2022-08-02T01:07:27;3.65;;;2.42;;
60344;SDS011;46188;52.324;8.032;2022-08-02T01:09:53;4.53;;;2.30;;
60344;SDS011;46188;52.324;8.032;2022-08-02T01:12:18;5.03;;;2.78;;
60344;SDS011;46188;52.324;8.032;2022-08-02T01:14:46;4.03;;;2.53;;
60344;SDS011;46188;52.324;8.032;2022-08-02T01:33:53;4.82;;;2.97;;
60344;SDS011;46188;52.324;8.032;2022-08-02T01:36:25;4.10;;;2.50;;
60344;SDS011;46188;52.324;8.032;2022-08-02T01:39:00;3.22;;;2.20;;
60344;SDS011;46188;52.324;8.032;2022-08-02T01:41:29;9.38;;;3.88;;
60344;SDS011;46188;52.324;8.032;2022-08-02T01:43:57;4.32;;;2.85;;
60344;SDS011;46188;52.324;8.032;2022-08-02T01:46:24;3.38;;;2.38;;
60344;SDS011;46188;52.324;8.032;2022-08-02T01:48:53;5.20;;;2.60;;
60344;SDS011;46188;52.324;8.032;2022-08-02T01:51:21;5.07;;;2.88;;
60344;SDS011;46188;52.324;8.032;2022-08-02T01:54:10;2.90;;;2.60;;
60344;SDS011;46188;52.324;8.032;2022-08-02T01:56:37;4.15;;;2.88;;
60344;SDS011;46188;52.324;8.032;2022-08-02T01:59:06;3.17;;;2.72;;
60344;SDS011;46188;52.324;8.032;2022-08-02T02:01:37;4.68;;;2.75;;
60344;SDS011;46188;52.324;8.032;2022-08-02T02:04:05;3.00;;;2.60;;
60344;SDS011;46188;52.324;8.032;2022-08-02T02:06:33;6.32;;;3.03;;
60344;SDS011;46188;52.324;8.032;2022-08-02T02:09:00;6.63;;;2.65;;
60344;SDS011;46188;52.324;8.032;2022-08-02T02:11:26;3.03;;;2.72;;
60344;SDS011;46188;52.324;8.032;2022-08-02T02:13:52;4.05;;;2.80;;
60344;SDS011;46188;52.324;8.032;2022-08-02T02:16:19;5.22;;;3.20;;
60344;SDS011;46188;52.324;8.032;2022-08-02T02:18:46;3.80;;;2.88;;
60344;SDS011;46188;52.324;8.032;2022-08-02T02:21:14;6.25;;;3.08;;
60344;SDS011;46188;52.324;8.032;2022-08-02T02:23:40;4.53;;;3.15;;
60344;SDS011;46188;52.324;8.032;2022-08-02T02:26:07;5.25;;;2.90;;
60344;SDS011;46188;52.324;8.032;2022-08-02T02:28:35;5.28;;;2.97;;
60344;SDS011;46188;52.324;8.032;2022-08-02T02:31:06;5.35;;;3.08;;
60344;SDS011;46188;52.324;8.032;2022-08-02T02:33:40;4.38;;;3.00;;
60344;SDS011;46188;52.324;8.032;2022-08-02T02:36:11;2.95;;;2.50;;
60344;SDS011;46188;52.324;8.032;2022-08-02T02:38:40;5.00;;;2.70;;
60344;SDS011;46188;52.324;8.032;2022-08-02T02:41:08;3.50;;;2.90;;
60344;SDS011;46188;52.324;8.032;2022-08-02T02:43:34;3.90;;;3.03;;
60344;SDS011;46188;52.324;8.032;2022-08-02T02:46:03;4.72;;;2.90;;
60344;SDS011;46188;52.324;8.032;2022-08-02T02:48:30;3.33;;;2.80;;
60344;SDS011;46188;52.324;8.032;2022-08-02T02:50:56;4.90;;;2.90;;
60344;SDS011;46188;52.324;8.032;2022-08-02T02:53:23;4.07;;;3.20;;
60344;SDS011;46188;52.324;8.032;2022-08-02T02:55:49;3.88;;;2.70;;
60344;SDS011;46188;52.324;8.032;2022-08-02T02:58:16;5.38;;;2.70;;
60344;SDS011;46188;52.324;8.032;2022-08-02T03:00:42;6.20;;;3.22;;
60344;SDS011;46188;52.324;8.032;2022-08-02T03:03:27;6.03;;;2.70;;
60344;SDS011;46188;52.324;8.032;2022-08-02T03:05:54;4.80;;;2.75;;
60344;SDS011;46188;52.324;8.032;2022-08-02T03:08:20;3.28;;;2.97;;
60344;SDS011;46188;52.324;8.032;2022-08-02T03:10:45;3.75;;;2.40;;
60344;SDS011;46188;52.324;8.032;2022-08-02T03:13:11;4.10;;;2.88;;
60344;SDS011;46188;52.324;8.032;2022-08-02T03:15:38;3.10;;;2.80;;
60344;SDS011;46188;52.324;8.032;2022-08-02T03:18:04;3.30;;;2.60;;
60344;SDS011;46188;52.324;8.032;2022-08-02T03:20:31;5.32;;;2.83;;
60344;SDS011;46188;52.324;8.032;2022-08-02T03:22:57;4.63;;;2.88;;
60344;SDS011;46188;52.324;8.032;2022-08-02T03:25:22;3.28;;;2.63;;
60344;SDS011;46188;52.324;8.032;2022-08-02T03:27:48;3.22;;;2.30;;
60344;SDS011;46188;52.324;8.032;2022-08-02T03:30:13;3.78;;;2.60;;
60344;SDS011;46188;52.324;8.032;2022-08-02T03:32:40;3.60;;;2.80;;
60344;SDS011;46188;52.324;8.032;2022-08-02T03:35:08;4.47;;;3.10;;
60344;SDS011;46188;52.324;8.032;2022-08-02T03:37:35;5.55;;;3.28;;
60344;SDS011;46188;52.324;8.032;2022-08-02T03:40:02;5.30;;;3.20;;
60344;SDS011;46188;52.324;8.032;2022-08-02T03:42:31;5.53;;;2.88;;
60344;SDS011;46188;52.324;8.032;2022-08-02T03:44:56;4.30;;;3.00;;
60344;SDS011;46188;52.324;8.032;2022-08-02T03:47:24;4.15;;;3.33;;
60344;SDS011;46188;52.324;8.032;2022-08-02T03:49:50;3.22;;;2.92;;
60344;SDS011;46188;52.324;8.032;2022-08-02T03:52:16;4.53;;;2.83;;
60344;SDS011;46188;52.324;8.032;2022-08-02T03:54:42;3.83;;;2.70;;
60344;SDS011;46188;52.324;8.032;2022-08-02T03:57:07;4.00;;;2.45;;
60344;SDS011;46188;52.324;8.032;2022-08-02T03:59:41;3.78;;;2.70;;
60344;SDS011;46188;52.324;8.032;2022-08-02T04:02:07;4.40;;;2.72;;
60344;SDS011;46188;52.324;8.032;2022-08-02T04:04:33;3.65;;;2.90;;
60344;SDS011;46188;52.324;8.032;2022-08-02T04:06:58;4.28;;;2.65;;
60344;SDS011;46188;52.324;8.032;2022-08-02T04:09:24;6.20;;;2.92;;
60344;SDS011;46188;52.324;8.032;2022-08-02T04:11:49;4.90;;;2.88;;
60344;SDS011;46188;52.324;8.032;2022-08-02T04:14:15;5.68;;;2.90;;
60344;SDS011;46188;52.324;8.032;2022-08-02T04:16:42;4.47;;;3.05;;
60344;SDS011;46188;52.324;8.032;2022-08-02T04:19:16;3.28;;;2.83;;
60344;SDS011;46188;52.324;8.032;2022-08-02T04:22:06;6.30;;;3.20;;
60344;SDS011;46188;52.324;8.032;2022-08-02T04:24:38;3.47;;;2.92;;
60344;SDS011;46188;52.324;8.032;2022-08-02T04:27:09;4.55;;;2.85;;
60344;SDS011;46188;52.324;8.032;2022-08-02T04:29:35;4.43;;;2.95;;
60344;SDS011;46188;52.324;8.032;2022-08-02T04:32:02;3.03;;;2.58;;
60344;SDS011;46188;52.324;8.032;2022-08-02T04:34:29;4.13;;;2.90;;
60344;SDS011;46188;52.324;8.032;2022-08-02T04:36:55;4.75;;;2.85;;
60344;SDS011;46188;52.324;8.032;2022-08-02T04:39:22;3.78;;;2.60;;
60344;SDS011;46188;52.324;8.032;2022-08-02T04:41:48;4.53;;;2.83;;
60344;SDS011;46188;52.324;8.032;2022-08-02T04:44:13;5.90;;;3.50;;
60344;SDS011;46188;52.324;8.032;2022-08-02T04:46:39;4.72;;;2.83;;
60344;SDS011;46188;52.324;8.032;2022-08-02T04:49:05;4.72;;;3.10;;
60344;SDS011;46188;52.324;8.032;2022-08-02T04:51:35;5.10;;;3.10;;
60344;SDS011;46188;52.324;8.032;2022-08-02T04:54:01;4.15;;;2.92;;
60344;SDS011;46188;52.324;8.032;2022-08-02T04:56:28;5.40;;;2.97;;
60344;SDS011;46188;52.324;8.032;2022-08-02T04:58:53;6.25;;;2.88;;
60344;SDS011;46188;52.324;8.032;2022-08-02T05:01:19;10.60;;;5.35;;
60344;SDS011;46188;52.324;8.032;2022-08-02T05:03:44;5.20;;;3.67;;
60344;SDS011;46188;52.324;8.032;2022-08-02T05:06:09;5.40;;;3.70;;
60344;SDS011;46188;52.324;8.032;2022-08-02T05:08:35;5.32;;;4.20;;
60344;SDS011;46188;52.324;8.032;2022-08-02T05:11:00;7.45;;;4.25;;
60344;SDS011;46188;52.324;8.032;2022-08-02T05:13:26;5.45;;;3.83;;
60344;SDS011;46188;52.324;8.032;2022-08-02T05:15:51;6.50;;;4.50;;
60344;SDS011;46188;52.324;8.032;2022-08-02T05:18:17;8.77;;;4.35;;
60344;SDS011;46188;52.324;8.032;2022-08-02T05:20:42;11.05;;;4.82;;
60344;SDS011;46188;52.324;8.032;2022-08-02T05:23:08;10.48;;;4.85;;
60344;SDS011;46188;52.324;8.032;2022-08-02T05:25:33;6.40;;;4.30;;
60344;SDS011;46188;52.324;8.032;2022-08-02T05:27:59;6.78;;;4.68;;
60344;SDS011;46188;52.324;8.032;2022-08-02T05:30:24;7.47;;;5.28;;
60344;SDS011;46188;52.324;8.032;2022-08-02T05:32:50;7.80;;;4.72;;
60344;SDS011;46188;52.324;8.032;2022-08-02T05:35:20;6.30;;;4.85;;
60344;SDS011;46188;52.324;8.032;2022-08-02T05:37:47;7.97;;;5.00;;
60344;SDS011;46188;52.324;8.032;2022-08-02T05:40:14;8.18;;;4.50;;
60344;SDS011;46188;52.324;8.032;2022-08-02T05:42:40;6.95;;;4.65;;
60344;SDS011;46188;52.324;8.032;2022-08-02T05:45:06;7.90;;;5.05;;
60344;SDS011;46188;52.324;8.032;2022-08-02T05:47:32;9.98;;;4.68;;
60344;SDS011;46188;52.324;8.032;2022-08-02T05:49:57;9.05;;;5.53;;
60344;SDS011;46188;52.324;8.032;2022-08-02T05:52:24;6.70;;;4.82;;
60344;SDS011;46188;52.324;8.032;2022-08-02T05:54:54;7.43;;;4.30;;
60344;SDS011;46188;52.324;8.032;2022-08-02T05:57:36;8.10;;;4.60;;
60344;SDS011;46188;52.324;8.032;2022-08-02T06:00:07;14.30;;;5.40;;
60344;SDS011;46188;52.324;8.032;2022-08-02T06:05:31;6.82;;;4.78;;
60344;SDS011;46188;52.324;8.032;2022-08-02T06:07:59;6.30;;;4.60;;
60344;SDS011;46188;52.324;8.032;2022-08-02T06:10:26;7.90;;;4.68;;
60344;SDS011;46188;52.324;8.032;2022-08-02T06:13:10;11.23;;;6.07;;
60344;SDS011;46188;52.324;8.032;2022-08-02T06:15:37;5.38;;;4.78;;
60344;SDS011;46188;52.324;8.032;2022-08-02T06:18:05;7.82;;;5.20;;
60344;SDS011;46188;52.324;8.032;2022-08-02T06:20:31;7.50;;;4.90;;
60344;SDS011;46188;52.324;8.032;2022-08-02T06:23:07;12.23;;;5.78;;
60344;SDS011;46188;52.324;8.032;2022-08-02T06:25:36;6.45;;;5.15;;
60344;SDS011;46188;52.324;8.032;2022-08-02T06:28:05;6.82;;;5.50;;
60344;SDS011;46188;52.324;8.032;2022-08-02T06:30:31;8.88;;;5.68;;
60344;SDS011;46188;52.324;8.032;2022-08-02T06:32:57;8.32;;;5.93;;
60344;SDS011;46188;52.324;8.032;2022-08-02T06:38:09;7.97;;;6.35;;
60344;SDS011;46188;52.324;8.032;2022-08-02T06:40:44;7.27;;;5.23;;
60344;SDS011;46188;52.324;8.032;2022-08-02T06:43:23;9.95;;;6.03;;
60344;SDS011;46188;52.324;8.032;2022-08-02T06:45:58;6.68;;;5.72;;
60344;SDS011;46188;52.324;8.032;2022-08-02T06:48:24;9.05;;;6.28;;
60344;SDS011;46188;52.324;8.032;2022-08-02T06:50:50;8.35;;;5.40;;
60344;SDS011;46188;52.324;8.032;2022-08-02T06:53:15;7.50;;;5.32;;
60344;SDS011;46188;52.324;8.032;2022-08-02T06:55:41;14.73;;;5.70;;
60344;SDS011;46188;52.324;8.032;2022-08-02T06:58:06;6.85;;;5.45;;
60344;SDS011;46188;52.324;8.032;2022-08-02T07:00:31;5.22;;;4.72;;
60344;SDS011;46188;52.324;8.032;2022-08-02T07:02:57;7.72;;;5.50;;
60344;SDS011;46188;52.324;8.032;2022-08-02T07:05:22;7.80;;;5.57;;
60344;SDS011;46188;52.324;8.032;2022-08-02T07:07:48;10.07;;;5.75;;
60344;SDS011;46188;52.324;8.032;2022-08-02T07:10:14;6.43;;;4.82;;
60344;SDS011;46188;52.324;8.032;2022-08-02T07:12:40;7.35;;;4.15;;
60344;SDS011;46188;52.324;8.032;2022-08-02T07:15:06;5.43;;;4.63;;
60344;SDS011;46188;52.324;8.032;2022-08-02T07:17:33;7.00;;;5.05;;
60344;SDS011;46188;52.324;8.032;2022-08-02T07:19:59;7.15;;;4.28;;
60344;SDS011;46188;52.324;8.032;2022-08-02T07:22:25;9.05;;;5.25;;
60344;SDS011;46188;52.324;8.032;2022-08-02T07:24:52;5.75;;;4.20;;
60344;SDS011;46188;52.324;8.032;2022-08-02T07:27:19;6.88;;;4.43;;
60344;SDS011;46188;52.324;8.032;2022-08-02T07:29:45;6.05;;;3.88;;
60344;SDS011;46188;52.324;8.032;2022-08-02T07:32:11;6.50;;;3.83;;
60344;SDS011;46188;52.324;8.032;2022-08-02T07:34:36;8.80;;;4.32;;
60344;SDS011;46188;52.324;8.032;2022-08-02T07:37:02;4.88;;;4.18;;
60344;SDS011;46188;52.324;8.032;2022-08-02T07:39:28;8.07;;;3.90;;
60344;SDS011;46188;52.324;8.032;2022-08-02T07:41:53;5.55;;;4.10;;
60344;SDS011;46188;52.324;8.032;2022-08-02T07:44:19;8.77;;;4.43;;
60344;SDS011;46188;52.324;8.032;2022-08-02T07:46:46;3.85;;;3.25;;
60344;SDS011;46188;52.324;8.032;2022-08-02T07:49:11;5.78;;;3.70;;
60344;SDS011;46188;52.324;8.032;2022-08-02T07:51:42;9.48;;;3.38;;
60344;SDS011;46188;52.324;8.032;2022-08-02T07:54:10;6.25;;;3.45;;
60344;SDS011;46188;52.324;8.032;2022-08-02T07:56:36;7.70;;;3.80;;
60344;SDS011;46188;52.324;8.032;2022-08-02T07:59:02;4.82;;;3.20;;
60344;SDS011;46188;52.324;8.032;2022-08-02T08:01:28;13.10;;;3.90;;
60344;SDS011;46188;52.324;8.032;2022-08-02T08:03:53;5.40;;;2.88;;
60344;SDS011;46188;52.324;8.032;2022-08-02T08:06:19;5.65;;;2.83;;
60344;SDS011;46188;52.324;8.032;2022-08-02T08:08:44;6.63;;;3.33;;
60344;SDS011;46188;52.324;8.032;2022-08-02T08:11:10;6.95;;;3.47;;
60344;SDS011;46188;52.324;8.032;2022-08-02T08:13:35;4.55;;;3.10;;
60344;SDS011;46188;52.324;8.032;2022-08-02T08:16:00;5.05;;;3.58;;
60344;SDS011;46188;52.324;8.032;2022-08-02T08:18:26;5.07;;;3.15;;
60344;SDS011;46188;52.324;8.032;2022-08-02T08:20:51;5.20;;;3.22;;
60344;SDS011;46188;52.324;8.032;2022-08-02T08:23:17;6.35;;;4.00;;
60344;SDS011;46188;52.324;8.032;2022-08-02T08:25:43;5.85;;;2.85;;
60344;SDS011;46188;52.324;8.032;2022-08-02T08:28:08;4.20;;;2.63;;
60344;SDS011;46188;52.324;8.032;2022-08-02T08:30:34;4.80;;;2.45;;
60344;SDS011;46188;52.324;8.032;2022-08-02T08:32:59;5.68;;;2.67;;
60344;SDS011;46188;52.324;8.032;2022-08-02T08:35:25;4.65;;;2.72;;
60344;SDS011;46188;52.324;8.032;2022-08-02T08:37:50;5.35;;;2.80;;
60344;SDS011;46188;52.324;8.032;2022-08-02T08:40:16;4.57;;;2.60;;
60344;SDS011;46188;52.324;8.032;2022-08-02T08:42:43;4.65;;;2.55;;
60344;SDS011;46188;52.324;8.032;2022-08-02T08:45:08;3.58;;;2.33;;
60344;SDS011;46188;52.324;8.032;2022-08-02T08:47:39;4.75;;;2.13;;
60344;SDS011;46188;52.324;8.032;2022-08-02T08:52:35;4.53;;;2.28;;
60344;SDS011;46188;52.324;8.032;2022-08-02T08:57:33;4.00;;;2.05;;
60344;SDS011;46188;52.324;8.032;2022-08-02T08:59:59;4.18;;;2.30;;
60344;SDS011;46188;52.324;8.032;2022-08-02T09:02:24;4.97;;;2.05;;
60344;SDS011;46188;52.324;8.032;2022-08-02T09:04:50;3.38;;;2.50;;
60344;SDS011;46188;52.324;8.032;2022-08-02T09:07:16;3.85;;;2.90;;
60344;SDS011;46188;52.324;8.032;2022-08-02T09:09:41;5.97;;;2.92;;
60344;SDS011;46188;52.324;8.032;2022-08-02T09:12:14;2.92;;;2.10;;
60344;SDS011;46188;52.324;8.032;2022-08-02T09:14:40;3.55;;;2.40;;
60344;SDS011;46188;52.324;8.032;2022-08-02T09:17:07;2.95;;;1.95;;
60344;SDS011;46188;52.324;8.032;2022-08-02T09:19:34;3.13;;;2.10;;
60344;SDS011;46188;52.324;8.032;2022-08-02T09:22:10;3.65;;;2.25;;
60344;SDS011;46188;52.324;8.032;2022-08-02T09:24:41;3.45;;;1.88;;
60344;SDS011;46188;52.324;8.032;2022-08-02T09:27:15;4.05;;;2.20;;
60344;SDS011;46188;52.324;8.032;2022-08-02T09:29:46;4.50;;;1.85;;
60344;SDS011;46188;52.324;8.032;2022-08-02T09:32:13;5.88;;;2.20;;
60344;SDS011;46188;52.324;8.032;2022-08-02T09:34:44;4.88;;;2.90;;
60344;SDS011;46188;52.324;8.032;2022-08-02T09:37:23;5.18;;;2.20;;
60344;SDS011;46188;52.324;8.032;2022-08-02T09:39:53;3.10;;;2.17;;
60344;SDS011;46188;52.324;8.032;2022-08-02T09:42:21;2.75;;;2.00;;
60344;SDS011;46188;52.324;8.032;2022-08-02T09:44:57;2.83;;;1.73;;
60344;SDS011;46188;52.324;8.032;2022-08-02T09:47:24;3.67;;;1.80;;
60344;SDS011;46188;52.324;8.032;2022-08-02T09:49:55;2.10;;;1.40;;
60344;SDS011;46188;52.324;8.032;2022-08-02T09:52:28;2.05;;;1.40;;
60344;SDS011;46188;52.324;8.032;2022-08-02T09:57:27;2.50;;;1.60;;
60344;SDS011;46188;52.324;8.032;2022-08-02T09:59:54;2.88;;;1.52;;
60344;SDS011;46188;52.324;8.032;2022-08-02T10:02:20;4.43;;;1.67;;
60344;SDS011;46188;52.324;8.032;2022-08-02T10:04:46;4.57;;;1.63;;
60344;SDS011;46188;52.324;8.032;2022-08-02T10:07:11;3.17;;;1.70;;
60344;SDS011;46188;52.324;8.032;2022-08-02T10:09:37;4.82;;;2.00;;
60344;SDS011;46188;52.324;8.032;2022-08-02T10:12:03;3.83;;;2.10;;
60344;SDS011;46188;52.324;8.032;2022-08-02T10:14:30;6.35;;;2.40;;
60344;SDS011;46188;52.324;8.032;2022-08-02T10:16:57;2.08;;;1.50;;
60344;SDS011;46188;52.324;8.032;2022-08-02T10:19:23;3.15;;;2.08;;
60344;SDS011;46188;52.324;8.032;2022-08-02T10:21:51;3.92;;;2.20;;
60344;SDS011;46188;52.324;8.032;2022-08-02T10:24:24;6.65;;;2.58;;
60344;SDS011;46188;52.324;8.032;2022-08-02T10:26:53;4.38;;;2.33;;
60344;SDS011;46188;52.324;8.032;2022-08-02T10:29:33;5.25;;;2.28;;
60344;SDS011;46188;52.324;8.032;2022-08-02T10:34:35;2.65;;;2.10;;
60344;SDS011;46188;52.324;8.032;2022-08-02T10:37:08;2.72;;;1.92;;
60344;SDS011;46188;52.324;8.032;2022-08-02T10:39:39;3.15;;;2.40;;
60344;SDS011;46188;52.324;8.032;2022-08-02T10:42:06;3.13;;;1.75;;
60344;SDS011;46188;52.324;8.032;2022-08-02T10:44:32;3.70;;;1.85;;
60344;SDS011;46188;52.324;8.032;2022-08-02T10:52:20;2.15;;;1.85;;
60344;SDS011;46188;52.324;8.032;2022-08-02T10:54:57;3.38;;;2.15;;
60344;SDS011;46188;52.324;8.032;2022-08-02T10:57:24;3.60;;;2.03;;
60344;SDS011;46188;52.324;8.032;2022-08-02T10:59:53;2.97;;;1.70;;
60344;SDS011;46188;52.324;8.032;2022-08-02T11:05:11;2.33;;;2.00;;
60344;SDS011;46188;52.324;8.032;2022-08-02T11:07:43;4.00;;;1.98;;
60344;SDS011;46188;52.324;8.032;2022-08-02T11:15:45;5.25;;;1.90;;
60344;SDS011;46188;52.324;8.032;2022-08-02T11:18:22;3.08;;;2.33;;
60344;SDS011;46188;52.324;8.032;2022-08-02T11:21:21;3.08;;;2.50;;
60344;SDS011;46188;52.324;8.032;2022-08-02T11:23:48;2.90;;;2.13;;
60344;SDS011;46188;52.324;8.032;2022-08-02T11:28:58;3.88;;;2.00;;
60344;SDS011;46188;52.324;8.032;2022-08-02T11:31:26;4.18;;;2.55;;
60344;SDS011;46188;52.324;8.032;2022-08-02T11:33:52;3.35;;;2.05;;
60344;SDS011;46188;52.324;8.032;2022-08-02T11:36:18;3.17;;;1.85;;
60344;SDS011;46188;52.324;8.032;2022-08-02T11:38:44;4.00;;;2.42;;
60344;SDS011;46188;52.324;8.032;2022-08-02T11:41:20;2.20;;;1.90;;
60344;SDS011;46188;52.324;8.032;2022-08-02T11:43:52;3.20;;;2.35;;
60344;SDS011;46188;52.324;8.032;2022-08-02T11:46:21;3.10;;;2.58;;
60344;SDS011;46188;52.324;8.032;2022-08-02T11:48:47;2.92;;;2.22;;
60344;SDS011;46188;52.324;8.032;2022-08-02T11:51:13;3.17;;;1.95;;
60344;SDS011;46188;52.324;8.032;2022-08-02T11:53:51;2.75;;;2.40;;
60344;SDS011;46188;52.324;8.032;2022-08-02T11:56:27;3.10;;;2.05;;
60344;SDS011;46188;52.324;8.032;2022-08-02T11:59:10;2.63;;;2.05;;
60344;SDS011;46188;52.324;8.032;2022-08-02T12:01:37;2.63;;;2.00;;
60344;SDS011;46188;52.324;8.032;2022-08-02T12:04:04;2.83;;;2.42;;
60344;SDS011;46188;52.324;8.032;2022-08-02T12:06:38;3.30;;;2.08;;
60344;SDS011;46188;52.324;8.032;2022-08-02T12:09:04;3.35;;;2.22;;
60344;SDS011;46188;52.324;8.032;2022-08-02T12:11:33;3.67;;;2.75;;
60344;SDS011;46188;52.324;8.032;2022-08-02T12:14:04;4.57;;;2.80;;
60344;SDS011;46188;52.324;8.032;2022-08-02T12:16:34;4.05;;;2.45;;
60344;SDS011;46188;52.324;8.032;2022-08-02T12:19:19;4.70;;;2.13;;
60344;SDS011;46188;52.324;8.032;2022-08-02T12:24:48;2.65;;;2.00;;
60344;SDS011;46188;52.324;8.032;2022-08-02T12:27:31;2.78;;;2.05;;
60344;SDS011;46188;52.324;8.032;2022-08-02T12:30:05;5.85;;;3.25;;
60344;SDS011;46188;52.324;8.032;2022-08-02T12:32:34;3.53;;;2.58;;
60344;SDS011;46188;52.324;8.032;2022-08-02T12:35:07;2.90;;;2.17;;
60344;SDS011;46188;52.324;8.032;2022-08-02T12:40:16;2.60;;;2.15;;
60344;SDS011;46188;52.324;8.032;2022-08-02T12:42:59;5.63;;;2.55;;
60344;SDS011;46188;52.324;8.032;2022-08-02T12:45:28;2.93;;;2.40;;
60344;SDS011;46188;52.324;8.032;2022-08-02T12:48:12;4.18;;;2.13;;
60344;SDS011;46188;52.324;8.032;2022-08-02T12:50:38;2.30;;;2.10;;
60344;SDS011;46188;52.324;8.032;2022-08-02T12:53:14;3.30;;;2.15;;
60344;SDS011;46188;52.324;8.032;2022-08-02T12:58:13;3.20;;;2.30;;
60344;SDS011;46188;52.324;8.032;2022-08-02T13:00:38;5.15;;;2.67;;
60344;SDS011;46188;52.324;8.032;2022-08-02T13:03:07;2.70;;;2.22;;
60344;SDS011;46188;52.324;8.032;2022-08-02T13:05:33;2.58;;;2.05;;
60344;SDS011;46188;52.324;8.032;2022-08-02T13:08:00;2.88;;;2.22;;
60344;SDS011;46188;52.324;8.032;2022-08-02T13:10:27;2.80;;;2.08;;
60344;SDS011;46188;52.324;8.032;2022-08-02T13:12:53;3.05;;;2.03;;
60344;SDS011;46188;52.324;8.032;2022-08-02T13:16:20;4.18;;;2.05;;
60344;SDS011;46188;52.324;8.032;2022-08-02T13:18:39;2.42;;;1.98;;
60344;SDS011;46188;52.324;8.032;2022-08-02T13:21:05;2.88;;;2.35;;
60344;SDS011;46188;52.324;8.032;2022-08-02T13:23:32;4.50;;;2.70;;
60344;SDS011;46188;52.324;8.032;2022-08-02T13:25:59;4.50;;;2.47;;
60344;SDS011;46188;52.324;8.032;2022-08-02T13:28:25;3.58;;;2.08;;
60344;SDS011;46188;52.324;8.032;2022-08-02T13:30:51;2.47;;;2.28;;
60344;SDS011;46188;52.324;8.032;2022-08-02T13:33:17;3.00;;;2.55;;
60344;SDS011;46188;52.324;8.032;2022-08-02T13:35:43;5.22;;;2.88;;
60344;SDS011;46188;52.324;8.032;2022-08-02T13:38:09;2.92;;;2.42;;
60344;SDS011;46188;52.324;8.032;2022-08-02T13:40:36;2.60;;;2.38;;
60344;SDS011;46188;52.324;8.032;2022-08-02T13:43:20;3.95;;;3.17;;
60344;SDS011;46188;52.324;8.032;2022-08-02T13:45:46;2.92;;;2.50;;
60344;SDS011;46188;52.324;8.032;2022-08-02T13:48:13;3.72;;;2.80;;
60344;SDS011;46188;52.324;8.032;2022-08-02T13:50:38;3.20;;;2.58;;
60344;SDS011;46188;52.324;8.032;2022-08-02T13:53:04;2.92;;;2.35;;
60344;SDS011;46188;52.324;8.032;2022-08-02T13:55:30;3.78;;;2.65;;
60344;SDS011;46188;52.324;8.032;2022-08-02T13:57:55;3.63;;;2.40;;
60344;SDS011;46188;52.324;8.032;2022-08-02T14:00:21;3.15;;;2.40;;
60344;SDS011;46188;52.324;8.032;2022-08-02T14:02:47;2.40;;;2.05;;
60344;SDS011;46188;52.324;8.032;2022-08-02T14:05:12;3.15;;;2.15;;
60344;SDS011;46188;52.324;8.032;2022-08-02T14:07:38;2.92;;;2.33;;
60344;SDS011;46188;52.324;8.032;2022-08-02T14:10:04;2.70;;;2.25;;
60344;SDS011;46188;52.324;8.032;2022-08-02T14:12:30;2.42;;;2.03;;
60344;SDS011;46188;52.324;8.032;2022-08-02T14:14:55;3.00;;;1.98;;
60344;SDS011;46188;52.324;8.032;2022-08-02T14:17:21;2.22;;;1.98;;
60344;SDS011;46188;52.324;8.032;2022-08-02T14:19:46;3.15;;;2.40;;
60344;SDS011;46188;52.324;8.032;2022-08-02T14:22:11;2.20;;;2.00;;
60344;SDS011;46188;52.324;8.032;2022-08-02T14:24:37;2.75;;;2.15;;
60344;SDS011;46188;52.324;8.032;2022-08-02T14:27:05;4.80;;;2.03;;
60344;SDS011;46188;52.324;8.032;2022-08-02T14:29:31;4.40;;;2.00;;
60344;SDS011;46188;52.324;8.032;2022-08-02T14:31:56;3.80;;;2.35;;
60344;SDS011;46188;52.324;8.032;2022-08-02T14:34:22;1.90;;;1.70;;
60344;SDS011;46188;52.324;8.032;2022-08-02T14:36:47;3.28;;;2.05;;
60344;SDS011;46188;52.324;8.032;2022-08-02T14:39:13;2.95;;;2.00;;
60344;SDS011;46188;52.324;8.032;2022-08-02T14:41:38;2.40;;;1.80;;
60344;SDS011;46188;52.324;8.032;2022-08-02T14:44:04;2.72;;;1.80;;
60344;SDS011;46188;52.324;8.032;2022-08-02T14:46:30;2.88;;;2.00;;
60344;SDS011;46188;52.324;8.032;2022-08-02T14:48:56;1.85;;;1.65;;
60344;SDS011;46188;52.324;8.032;2022-08-02T14:51:25;3.35;;;1.80;;
60344;SDS011;46188;52.324;8.032;2022-08-02T14:53:51;2.40;;;1.98;;
60344;SDS011;46188;52.324;8.032;2022-08-02T14:56:16;2.38;;;2.00;;
60344;SDS011;46188;52.324;8.032;2022-08-02T14:58:42;2.83;;;1.90;;
60344;SDS011;46188;52.324;8.032;2022-08-02T15:01:07;2.35;;;1.88;;
60344;SDS011;46188;52.324;8.032;2022-08-02T15:03:33;1.80;;;1.50;;
60344;SDS011;46188;52.324;8.032;2022-08-02T15:05:59;2.15;;;1.65;;
60344;SDS011;46188;52.324;8.032;2022-08-02T15:08:25;2.40;;;1.70;;
60344;SDS011;46188;52.324;8.032;2022-08-02T15:10:51;2.45;;;1.83;;
60344;SDS011;46188;52.324;8.032;2022-08-02T15:13:16;2.22;;;2.00;;
60344;SDS011;46188;52.324;8.032;2022-08-02T15:15:42;4.15;;;2.20;;
60344;SDS011;46188;52.324;8.032;2022-08-02T15:18:11;2.65;;;2.00;;
60344;SDS011;46188;52.324;8.032;2022-08-02T15:20:37;2.00;;;1.60;;
60344;SDS011;46188;52.324;8.032;2022-08-02T15:23:03;2.28;;;1.85;;
60344;SDS011;46188;52.324;8.032;2022-08-02T15:25:28;2.92;;;1.60;;
60344;SDS011;46188;52.324;8.032;2022-08-02T15:27:54;2.35;;;1.80;;
60344;SDS011;46188;52.324;8.032;2022-08-02T15:30:19;3.45;;;1.88;;
60344;SDS011;46188;52.324;8.032;2022-08-02T15:32:45;2.10;;;1.60;;
60344;SDS011;46188;52.324;8.032;2022-08-02T15:35:11;2.15;;;1.70;;
60344;SDS011;46188;52.324;8.032;2022-08-02T15:37:37;3.05;;;2.20;;
60344;SDS011;46188;52.324;8.032;2022-08-02T15:40:02;3.50;;;2.03;;
60344;SDS011;46188;52.324;8.032;2022-08-02T15:42:28;2.78;;;2.20;;
60344;SDS011;46188;52.324;8.032;2022-08-02T15:44:53;3.45;;;2.10;;
60344;SDS011;46188;52.324;8.032;2022-08-02T15:47:19;2.10;;;1.90;;
60344;SDS011;46188;52.324;8.032;2022-08-02T15:49:45;2.13;;;1.80;;